createdAt,value
2017-11-28T00:00:51.168Z,1020.98
2017-11-28T00:01:51.156Z,1021
2017-11-28T00:02:51.152Z,1020.97
2017-11-28T00:03:51.137Z,1021.03
2017-11-28T00:04:51.127Z,1021.01
2017-11-28T00:05:51.116Z,1020.93
2017-11-28T00:06:51.093Z,1021.02
2017-11-28T00:07:51.078Z,1021.02
2017-11-28T00:08:51.068Z,1021.02
2017-11-28T00:09:51.061Z,1021.07
2017-11-28T00:10:51.047Z,1021.04
2017-11-28T00:11:51.034Z,1021
2017-11-28T00:12:51.022Z,1021.01
2017-11-28T00:13:51.008Z,1021.02
2017-11-28T00:14:50.995Z,1020.98
2017-11-28T00:15:50.984Z,1020.95
2017-11-28T00:16:50.974Z,1020.93
2017-11-28T00:17:50.960Z,1020.92
2017-11-28T00:18:50.949Z,1020.97
2017-11-28T00:19:50.937Z,1020.96
2017-11-28T00:20:50.924Z,1020.94
2017-11-28T00:21:50.914Z,1020.92
2017-11-28T00:22:50.903Z,1020.93
2017-11-28T00:23:50.903Z,1020.9
2017-11-28T00:24:50.877Z,1020.9
2017-11-28T00:25:50.866Z,1020.86
2017-11-28T00:26:50.856Z,1020.84
2017-11-28T00:27:50.841Z,1020.86
2017-11-28T00:28:50.830Z,1020.83
2017-11-28T00:29:50.821Z,1020.84
2017-11-28T00:30:50.810Z,1020.84
2017-11-28T00:31:50.797Z,1020.85
2017-11-28T00:32:50.783Z,1020.74
2017-11-28T00:33:50.775Z,1020.71
2017-11-28T00:34:50.765Z,1020.64
2017-11-28T00:35:50.747Z,1020.66
2017-11-28T00:36:50.738Z,1020.67
2017-11-28T00:37:50.726Z,1020.6
2017-11-28T00:38:50.711Z,1020.59
2017-11-28T00:39:50.700Z,1020.63
2017-11-28T00:40:50.689Z,1020.54
2017-11-28T00:41:50.677Z,1020.57
2017-11-28T00:42:50.666Z,1020.58
2017-11-28T00:43:50.657Z,1020.61
2017-11-28T00:44:50.644Z,1020.53
2017-11-28T00:45:50.640Z,1020.55
2017-11-28T00:46:50.621Z,1020.59
2017-11-28T00:47:50.610Z,1020.59
2017-11-28T00:48:50.598Z,1020.52
2017-11-28T00:49:50.586Z,1020.55
2017-11-28T00:50:50.574Z,1020.58
2017-11-28T00:51:50.562Z,1020.55
2017-11-28T00:52:50.549Z,1020.51
2017-11-28T00:53:50.537Z,1020.49
2017-11-28T00:54:50.525Z,1020.46
2017-11-28T00:55:50.517Z,1020.46
2017-11-28T00:56:50.503Z,1020.45
2017-11-28T00:57:50.498Z,1020.4
2017-11-28T00:58:50.480Z,1020.41
2017-11-28T00:59:50.484Z,1020.39
2017-11-28T01:00:50.455Z,1020.4
2017-11-28T01:01:50.445Z,1020.45
2017-11-28T01:02:50.433Z,1020.41
2017-11-28T01:03:50.421Z,1020.46
2017-11-28T01:04:50.415Z,1020.43
2017-11-28T01:05:50.409Z,1020.41
2017-11-28T01:06:50.390Z,1020.37
2017-11-28T01:07:50.377Z,1020.42
2017-11-28T01:08:50.366Z,1020.41
2017-11-28T01:09:50.356Z,1020.46
2017-11-28T01:10:50.338Z,1020.36
2017-11-28T01:11:50.329Z,1020.46
2017-11-28T01:12:50.315Z,1020.43
2017-11-28T01:13:50.304Z,1020.43
2017-11-28T01:14:50.293Z,1020.39
2017-11-28T01:15:50.281Z,1020.42
2017-11-28T01:16:50.272Z,1020.38
2017-11-28T01:17:50.261Z,1020.41
2017-11-28T01:18:50.250Z,1020.41
2017-11-28T01:19:50.497Z,1020.41
2017-11-28T01:20:50.225Z,1020.44
2017-11-28T01:21:50.213Z,1020.39
2017-11-28T01:22:50.202Z,1020.44
2017-11-28T01:23:50.190Z,1020.44
2017-11-28T01:24:50.181Z,1020.44
2017-11-28T01:25:50.168Z,1020.46
2017-11-28T01:26:50.153Z,1020.45
2017-11-28T01:27:50.142Z,1020.42
2017-11-28T01:28:50.130Z,1020.35
2017-11-28T01:29:50.122Z,1020.32
2017-11-28T01:30:50.110Z,1020.39
2017-11-28T01:31:50.099Z,1020.39
2017-11-28T01:32:50.089Z,1020.33
2017-11-28T01:33:50.074Z,1020.31
2017-11-28T01:34:50.064Z,1020.25
2017-11-28T01:35:50.051Z,1020.27
2017-11-28T01:36:50.042Z,1020.26
2017-11-28T01:37:50.030Z,1020.24
2017-11-28T01:38:50.019Z,1020.21
2017-11-28T01:39:50.008Z,1020.23
2017-11-28T01:40:49.995Z,1020.18
2017-11-28T01:41:49.984Z,1020.21
2017-11-28T01:42:49.971Z,1020.28
2017-11-28T01:43:49.960Z,1020.2
2017-11-28T01:44:49.947Z,1020.24
2017-11-28T01:45:49.935Z,1020.23
2017-11-28T01:46:49.925Z,1020.2
2017-11-28T01:47:49.918Z,1020.21
2017-11-28T01:48:49.908Z,1020.24
2017-11-28T01:49:49.889Z,1020.25
2017-11-28T01:50:50.130Z,1020.29
2017-11-28T01:51:49.868Z,1020.29
2017-11-28T01:52:49.858Z,1020.29
2017-11-28T01:53:49.846Z,1020.25
2017-11-28T01:54:49.833Z,1020.25
2017-11-28T01:55:49.825Z,1020.26
2017-11-28T01:56:49.811Z,1020.3
2017-11-28T01:57:49.799Z,1020.29
2017-11-28T01:58:49.795Z,1020.33
2017-11-28T01:59:49.777Z,1020.29
2017-11-28T02:00:49.763Z,1020.29
2017-11-28T02:01:49.754Z,1020.24
2017-11-28T02:02:49.741Z,1020.29
2017-11-28T02:03:49.730Z,1020.36
2017-11-28T02:04:49.719Z,1020.41
2017-11-28T02:05:49.705Z,1020.43
2017-11-28T02:06:49.721Z,1020.42
2017-11-28T02:07:49.685Z,1020.4
2017-11-28T02:08:49.673Z,1020.43
2017-11-28T02:09:49.667Z,1020.44
2017-11-28T02:10:49.646Z,1020.43
2017-11-28T02:11:49.635Z,1020.48
2017-11-28T02:12:49.624Z,1020.49
2017-11-28T02:13:49.612Z,1020.44
2017-11-28T02:14:49.597Z,1020.5
2017-11-28T02:15:49.590Z,1020.47
2017-11-28T02:16:49.576Z,1020.45
2017-11-28T02:17:49.564Z,1020.43
2017-11-28T02:18:49.552Z,1020.37
2017-11-28T02:19:49.540Z,1020.34
2017-11-28T02:20:49.530Z,1020.32
2017-11-28T02:21:49.519Z,1020.36
2017-11-28T02:22:49.503Z,1020.34
2017-11-28T02:23:49.503Z,1020.39
2017-11-28T02:24:49.478Z,1020.37
2017-11-28T02:25:49.475Z,1020.33
2017-11-28T02:26:49.458Z,1020.32
2017-11-28T02:27:49.444Z,1020.24
2017-11-28T02:28:49.430Z,1020.32
2017-11-28T02:29:49.419Z,1020.29
2017-11-28T02:30:49.408Z,1020.23
2017-11-28T02:31:49.395Z,1020.19
2017-11-28T02:32:49.383Z,1020.21
2017-11-28T02:33:49.372Z,1020.18
2017-11-28T02:34:49.359Z,1020.18
2017-11-28T02:35:49.349Z,1020.18
2017-11-28T02:36:49.334Z,1020.14
2017-11-28T02:37:49.322Z,1020.16
2017-11-28T02:38:49.314Z,1020.13
2017-11-28T02:39:49.300Z,1020.18
2017-11-28T02:40:49.286Z,1020.12
2017-11-28T02:41:49.277Z,1020.08
2017-11-28T02:42:49.271Z,1020.07
2017-11-28T02:43:49.250Z,1020.1
2017-11-28T02:44:49.241Z,1020.08
2017-11-28T02:45:49.230Z,1020.06
2017-11-28T02:46:49.216Z,1020.02
2017-11-28T02:47:49.202Z,1020
2017-11-28T02:48:49.194Z,1020.03
2017-11-28T02:49:49.178Z,1020.01
2017-11-28T02:50:49.171Z,1020.01
2017-11-28T02:51:49.155Z,1019.98
2017-11-28T02:52:49.144Z,1020
2017-11-28T02:53:49.130Z,1019.91
2017-11-28T02:54:49.121Z,1019.96
2017-11-28T02:55:49.106Z,1019.93
2017-11-28T02:56:49.101Z,1019.94
2017-11-28T02:57:49.081Z,1019.9
2017-11-28T02:58:49.070Z,1019.96
2017-11-28T02:59:49.058Z,1019.92
2017-11-28T03:00:49.048Z,1019.98
2017-11-28T03:01:49.034Z,1019.93
2017-11-28T03:02:49.025Z,1019.94
2017-11-28T03:03:49.013Z,1019.87
2017-11-28T03:04:48.997Z,1019.89
2017-11-28T03:05:48.989Z,1019.91
2017-11-28T03:06:48.977Z,1019.89
2017-11-28T03:07:48.966Z,1019.9
2017-11-28T03:08:48.954Z,1019.89
2017-11-28T03:09:48.940Z,1019.89
2017-11-28T03:10:48.930Z,1019.86
2017-11-28T03:11:48.918Z,1019.9
2017-11-28T03:12:48.908Z,1019.84
2017-11-28T03:13:48.892Z,1019.85
2017-11-28T03:14:48.881Z,1019.81
2017-11-28T03:15:48.869Z,1019.79
2017-11-28T03:16:48.858Z,1019.77
2017-11-28T03:17:48.844Z,1019.74
2017-11-28T03:18:48.837Z,1019.68
2017-11-28T03:19:48.822Z,1019.71
2017-11-28T03:20:48.810Z,1019.69
2017-11-28T03:21:48.796Z,1019.68
2017-11-28T03:22:48.784Z,1019.63
2017-11-28T03:23:48.774Z,1019.63
2017-11-28T03:24:48.761Z,1019.59
2017-11-28T03:25:48.761Z,1019.58
2017-11-28T03:26:48.736Z,1019.54
2017-11-28T03:27:48.725Z,1019.56
2017-11-28T03:28:48.717Z,1019.55
2017-11-28T03:29:48.704Z,1019.55
2017-11-28T03:30:48.700Z,1019.53
2017-11-28T03:31:48.688Z,1019.58
2017-11-28T03:32:48.667Z,1019.5
2017-11-28T03:33:48.654Z,1019.53
2017-11-28T03:34:48.646Z,1019.47
2017-11-28T03:35:48.630Z,1019.53
2017-11-28T03:36:48.621Z,1019.47
2017-11-28T03:37:48.609Z,1019.46
2017-11-28T03:38:48.597Z,1019.46
2017-11-28T03:39:48.587Z,1019.45
2017-11-28T03:40:48.577Z,1019.49
2017-11-28T03:41:48.562Z,1019.48
2017-11-28T03:42:48.552Z,1019.39
2017-11-28T03:43:48.546Z,1019.38
2017-11-28T03:44:48.528Z,1019.38
2017-11-28T03:45:48.517Z,1019.39
2017-11-28T03:46:48.510Z,1019.4
2017-11-28T03:47:48.494Z,1019.4
2017-11-28T03:48:48.478Z,1019.39
2017-11-28T03:49:48.468Z,1019.33
2017-11-28T03:50:48.456Z,1019.33
2017-11-28T03:51:48.448Z,1019.34
2017-11-28T03:52:48.441Z,1019.29
2017-11-28T03:53:48.425Z,1019.32
2017-11-28T03:54:48.418Z,1019.35
2017-11-28T03:55:48.400Z,1019.31
2017-11-28T03:56:48.387Z,1019.33
2017-11-28T03:57:48.376Z,1019.33
2017-11-28T03:58:48.365Z,1019.31
2017-11-28T03:59:48.353Z,1019.23
2017-11-28T04:00:48.342Z,1019.24
2017-11-28T04:01:48.330Z,1019.18
2017-11-28T04:02:48.322Z,1019.13
2017-11-28T04:03:48.306Z,1019.17
2017-11-28T04:04:48.297Z,1019.09
2017-11-28T04:05:48.288Z,1019.14
2017-11-28T04:06:48.291Z,1019.12
2017-11-28T04:07:48.264Z,1019.15
2017-11-28T04:08:48.252Z,1019.11
2017-11-28T04:09:48.242Z,1019.18
2017-11-28T04:10:48.227Z,1019.19
2017-11-28T04:11:48.217Z,1019.24
2017-11-28T04:12:48.208Z,1019.21
2017-11-28T04:13:48.197Z,1019.18
2017-11-28T04:14:48.182Z,1019.19
2017-11-28T04:15:48.173Z,1019.16
2017-11-28T04:16:48.164Z,1019.08
2017-11-28T04:17:48.149Z,1019.15
2017-11-28T04:18:48.137Z,1019.15
2017-11-28T04:19:48.126Z,1019.1
2017-11-28T04:20:48.116Z,1019.11
2017-11-28T04:21:48.105Z,1019.12
2017-11-28T04:22:48.093Z,1019.13
2017-11-28T04:23:48.083Z,1019.09
2017-11-28T04:24:48.072Z,1019.05
2017-11-28T04:25:48.060Z,1019.01
2017-11-28T04:26:48.350Z,1019.06
2017-11-28T04:27:48.036Z,1019
2017-11-28T04:28:48.025Z,1018.97
2017-11-28T04:29:48.016Z,1018.97
2017-11-28T04:30:48.005Z,1019
2017-11-28T04:31:47.991Z,1019
2017-11-28T04:32:47.979Z,1018.97
2017-11-28T04:33:47.969Z,1018.97
2017-11-28T04:34:47.959Z,1018.97
2017-11-28T04:35:47.947Z,1018.97
2017-11-28T04:36:47.936Z,1018.92
2017-11-28T04:37:47.926Z,1018.87
2017-11-28T04:38:47.917Z,1018.89
2017-11-28T04:39:47.902Z,1018.85
2017-11-28T04:40:47.892Z,1018.88
2017-11-28T04:41:47.883Z,1018.89
2017-11-28T04:42:47.870Z,1018.82
2017-11-28T04:43:47.857Z,1018.8
2017-11-28T04:44:47.847Z,1018.83
2017-11-28T04:45:47.838Z,1018.82
2017-11-28T04:46:47.825Z,1018.78
2017-11-28T04:47:47.822Z,1018.75
2017-11-28T04:48:47.805Z,1018.83
2017-11-28T04:49:47.791Z,1018.79
2017-11-28T04:50:47.801Z,1018.86
2017-11-28T04:51:47.776Z,1018.81
2017-11-28T04:52:47.760Z,1018.8
2017-11-28T04:53:47.750Z,1018.8
2017-11-28T04:54:47.736Z,1018.8
2017-11-28T04:55:47.729Z,1018.85
2017-11-28T04:56:47.716Z,1018.88
2017-11-28T04:57:47.702Z,1018.89
2017-11-28T04:58:47.700Z,1018.89
2017-11-28T04:59:47.682Z,1018.89
2017-11-28T05:00:47.672Z,1018.8
2017-11-28T05:01:47.657Z,1018.82
2017-11-28T05:02:47.647Z,1018.78
2017-11-28T05:03:47.638Z,1018.76
2017-11-28T05:04:47.625Z,1018.75
2017-11-28T05:05:47.617Z,1018.75
2017-11-28T05:06:47.602Z,1018.8
2017-11-28T05:07:47.591Z,1018.78
2017-11-28T05:08:47.584Z,1018.74
2017-11-28T05:09:47.574Z,1018.71
2017-11-28T05:10:47.558Z,1018.71
2017-11-28T05:11:47.548Z,1018.69
2017-11-28T05:12:47.535Z,1018.63
2017-11-28T05:13:47.527Z,1018.64
2017-11-28T05:14:47.513Z,1018.74
2017-11-28T05:15:47.505Z,1018.73
2017-11-28T05:16:47.493Z,1018.71
2017-11-28T05:17:47.482Z,1018.73
2017-11-28T05:18:47.470Z,1018.7
2017-11-28T05:19:47.459Z,1018.73
2017-11-28T05:20:47.450Z,1018.73
2017-11-28T05:21:47.438Z,1018.69
2017-11-28T05:22:47.432Z,1018.69
2017-11-28T05:23:47.416Z,1018.67
2017-11-28T05:24:47.403Z,1018.64
2017-11-28T05:25:47.395Z,1018.62
2017-11-28T05:26:47.384Z,1018.62
2017-11-28T05:27:47.370Z,1018.6
2017-11-28T05:28:47.359Z,1018.61
2017-11-28T05:29:47.352Z,1018.71
2017-11-28T05:30:47.341Z,1018.74
2017-11-28T05:31:47.327Z,1018.71
2017-11-28T05:32:47.317Z,1018.71
2017-11-28T05:33:47.305Z,1018.75
2017-11-28T05:34:47.293Z,1018.73
2017-11-28T05:35:47.285Z,1018.74
2017-11-28T05:36:47.272Z,1018.7
2017-11-28T05:37:47.262Z,1018.67
2017-11-28T05:38:47.251Z,1018.61
2017-11-28T05:39:47.241Z,1018.6
2017-11-28T05:40:47.228Z,1018.54
2017-11-28T05:41:47.219Z,1018.55
2017-11-28T05:42:47.214Z,1018.47
2017-11-28T05:43:47.206Z,1018.47
2017-11-28T05:44:47.190Z,1018.5
2017-11-28T05:45:47.176Z,1018.47
2017-11-28T05:46:47.165Z,1018.52
2017-11-28T05:47:47.154Z,1018.54
2017-11-28T05:48:47.140Z,1018.51
2017-11-28T05:49:47.129Z,1018.53
2017-11-28T05:50:47.135Z,1018.55
2017-11-28T05:51:47.108Z,1018.67
2017-11-28T05:52:47.109Z,1018.66
2017-11-28T05:53:47.085Z,1018.74
2017-11-28T05:54:47.079Z,1018.73
2017-11-28T05:55:47.088Z,1018.73
2017-11-28T05:56:47.074Z,1018.76
2017-11-28T05:57:47.042Z,1018.72
2017-11-28T05:58:47.033Z,1018.77
2017-11-28T05:59:47.021Z,1018.8
2017-11-28T06:00:47.011Z,1018.81
2017-11-28T06:01:46.998Z,1018.8
2017-11-28T06:02:46.986Z,1018.79
2017-11-28T06:03:46.979Z,1018.78
2017-11-28T06:04:46.966Z,1018.79
2017-11-28T06:05:46.954Z,1018.76
2017-11-28T06:06:46.949Z,1018.79
2017-11-28T06:07:46.930Z,1018.76
2017-11-28T06:08:46.922Z,1018.82
2017-11-28T06:09:46.910Z,1018.79
2017-11-28T06:10:46.898Z,1018.85
2017-11-28T06:11:46.889Z,1018.84
2017-11-28T06:12:46.876Z,1018.89
2017-11-28T06:13:46.865Z,1018.89
2017-11-28T06:14:46.853Z,1018.92
2017-11-28T06:15:46.843Z,1018.92
2017-11-28T06:16:46.834Z,1018.88
2017-11-28T06:17:46.823Z,1018.91
2017-11-28T06:18:46.810Z,1018.88
2017-11-28T06:19:46.801Z,1018.9
2017-11-28T06:20:46.790Z,1018.88
2017-11-28T06:21:46.780Z,1018.85
2017-11-28T06:22:46.765Z,1018.86
2017-11-28T06:23:46.759Z,1018.9
2017-11-28T06:24:46.753Z,1018.88
2017-11-28T06:25:46.731Z,1018.9
2017-11-28T06:26:46.720Z,1018.93
2017-11-28T06:27:46.710Z,1018.94
2017-11-28T06:28:46.698Z,1018.96
2017-11-28T06:29:46.687Z,1018.95
2017-11-28T06:30:46.680Z,1018.96
2017-11-28T06:31:46.668Z,1018.99
2017-11-28T06:32:46.654Z,1019.01
2017-11-28T06:33:46.642Z,1019.07
2017-11-28T06:34:46.634Z,1019.09
2017-11-28T06:35:46.624Z,1019.1
2017-11-28T06:36:46.612Z,1019.08
2017-11-28T06:37:46.598Z,1019.07
2017-11-28T06:38:46.587Z,1019.08
2017-11-28T06:39:46.576Z,1019.13
2017-11-28T06:40:46.564Z,1019.19
2017-11-28T06:41:46.555Z,1019.25
2017-11-28T06:42:46.543Z,1019.29
2017-11-28T06:43:46.533Z,1019.29
2017-11-28T06:44:46.522Z,1019.33
2017-11-28T06:45:46.509Z,1019.36
2017-11-28T06:46:46.503Z,1019.38
2017-11-28T06:47:46.489Z,1019.37
2017-11-28T06:48:46.477Z,1019.35
2017-11-28T06:49:46.466Z,1019.4
2017-11-28T06:50:46.458Z,1019.45
2017-11-28T06:51:46.441Z,1019.49
2017-11-28T06:52:46.432Z,1019.49
2017-11-28T06:53:46.421Z,1019.5
2017-11-28T06:54:46.408Z,1019.51
2017-11-28T06:55:46.395Z,1019.54
2017-11-28T06:56:46.388Z,1019.52
2017-11-28T06:57:46.374Z,1019.53
2017-11-28T06:58:46.364Z,1019.49
2017-11-28T06:59:46.350Z,1019.4
2017-11-28T07:00:46.339Z,1019.31
2017-11-28T07:01:46.328Z,1019.33
2017-11-28T07:02:46.565Z,1019.32
2017-11-28T07:03:46.306Z,1019.28
2017-11-28T07:04:46.295Z,1019.31
2017-11-28T07:05:46.288Z,1019.32
2017-11-28T07:06:46.272Z,1019.37
2017-11-28T07:07:46.261Z,1019.38
2017-11-28T07:08:46.248Z,1019.36
2017-11-28T07:09:46.237Z,1019.34
2017-11-28T07:10:46.226Z,1019.33
2017-11-28T07:11:46.217Z,1019.29
2017-11-28T07:12:46.205Z,1019.33
2017-11-28T07:13:46.191Z,1019.39
2017-11-28T07:14:46.183Z,1019.34
2017-11-28T07:15:46.170Z,1019.36
2017-11-28T07:16:46.163Z,1019.36
2017-11-28T07:17:46.146Z,1019.3
2017-11-28T07:18:46.135Z,1019.3
2017-11-28T07:19:46.126Z,1019.2
2017-11-28T07:20:46.113Z,1019.19
2017-11-28T07:21:46.104Z,1019.09
2017-11-28T07:22:46.092Z,1019.17
2017-11-28T07:23:46.081Z,1019.16
2017-11-28T07:24:46.068Z,1019.24
2017-11-28T07:25:46.057Z,1019.26
2017-11-28T07:26:46.045Z,1019.31
2017-11-28T07:27:46.033Z,1019.25
2017-11-28T07:28:46.020Z,1019.2
2017-11-28T07:29:46.012Z,1019.2
2017-11-28T07:30:45.999Z,1019.18
2017-11-28T07:31:45.986Z,1019.18
2017-11-28T07:32:45.978Z,1019.17
2017-11-28T07:33:45.967Z,1019.21
2017-11-28T07:34:45.959Z,1019.16
2017-11-28T07:35:45.941Z,1019.16
2017-11-28T07:36:45.931Z,1019.15
2017-11-28T07:37:45.919Z,1019.13
2017-11-28T07:38:45.911Z,1019.15
2017-11-28T07:39:45.897Z,1019.12
2017-11-28T07:40:45.885Z,1019.14
2017-11-28T07:41:45.874Z,1019.14
2017-11-28T07:42:45.864Z,1019.11
2017-11-28T07:43:45.852Z,1019.09
2017-11-28T07:44:45.841Z,1019.05
2017-11-28T07:45:45.830Z,1019.08
2017-11-28T07:46:45.818Z,1019.07
2017-11-28T07:47:45.806Z,1019.05
2017-11-28T07:48:45.797Z,1019.12
2017-11-28T07:49:45.787Z,1019.08
2017-11-28T07:50:45.776Z,1019.07
2017-11-28T07:51:45.763Z,1019.1
2017-11-28T07:52:45.752Z,1019.01
2017-11-28T07:53:45.742Z,1019.06
2017-11-28T07:54:45.729Z,1019.07
2017-11-28T07:55:45.718Z,1019.09
2017-11-28T07:56:45.711Z,1019.06
2017-11-28T07:57:45.696Z,1019.03
2017-11-28T07:58:45.685Z,1019.04
2017-11-28T07:59:45.676Z,1018.99
2017-11-28T08:00:45.665Z,1018.98
2017-11-28T08:01:45.653Z,1018.94
2017-11-28T08:02:45.640Z,1018.99
2017-11-28T08:03:45.632Z,1018.96
2017-11-28T08:04:45.621Z,1018.9
2017-11-28T08:05:45.607Z,1018.86
2017-11-28T08:06:45.611Z,1018.87
2017-11-28T08:07:45.586Z,1018.79
2017-11-28T08:08:45.575Z,1018.8
2017-11-28T08:09:45.563Z,1018.78
2017-11-28T08:10:45.553Z,1018.85
2017-11-28T08:11:45.543Z,1018.84
2017-11-28T08:12:45.530Z,1018.79
2017-11-28T08:13:45.522Z,1018.85
2017-11-28T08:14:45.511Z,1018.85
2017-11-28T08:15:45.498Z,1018.83
2017-11-28T08:16:45.487Z,1018.83
2017-11-28T08:17:45.476Z,1018.8
2017-11-28T08:18:45.469Z,1018.79
2017-11-28T08:19:45.457Z,1018.74
2017-11-28T08:20:45.443Z,1018.76
2017-11-28T08:21:45.435Z,1018.71
2017-11-28T08:22:45.427Z,1018.71
2017-11-28T08:23:45.411Z,1018.72
2017-11-28T08:24:45.406Z,1018.69
2017-11-28T08:25:45.392Z,1018.66
2017-11-28T08:26:45.378Z,1018.64
2017-11-28T08:27:45.371Z,1018.68
2017-11-28T08:28:45.377Z,1018.68
2017-11-28T08:29:45.346Z,1018.64
2017-11-28T08:30:45.335Z,1018.66
2017-11-28T08:31:45.327Z,1018.69
2017-11-28T08:32:45.315Z,1018.7
2017-11-28T08:33:45.306Z,1018.73
2017-11-28T08:34:45.294Z,1018.68
2017-11-28T08:35:45.282Z,1018.73
2017-11-28T08:36:45.273Z,1018.72
2017-11-28T08:37:45.268Z,1018.65
2017-11-28T08:38:45.250Z,1018.66
2017-11-28T08:39:45.239Z,1018.64
2017-11-28T08:40:45.234Z,1018.59
2017-11-28T08:41:45.217Z,1018.59
2017-11-28T08:42:45.207Z,1018.61
2017-11-28T08:43:45.200Z,1018.62
2017-11-28T08:44:45.190Z,1018.6
2017-11-28T08:45:45.187Z,1018.6
2017-11-28T08:46:45.182Z,1018.53
2017-11-28T08:47:45.159Z,1018.5
2017-11-28T08:48:45.164Z,1018.51
2017-11-28T08:49:45.136Z,1018.45
2017-11-28T08:50:45.125Z,1018.43
2017-11-28T08:51:45.322Z,1018.39
2017-11-28T08:52:45.103Z,1018.36
2017-11-28T08:53:45.093Z,1018.29
2017-11-28T08:54:45.082Z,1018.23
2017-11-28T08:55:45.078Z,1018.2
2017-11-28T08:56:45.065Z,1018.23
2017-11-28T08:57:45.052Z,1018.22
2017-11-28T08:58:45.047Z,1018.28
2017-11-28T08:59:45.033Z,1018.31
2017-11-28T09:00:45.020Z,1018.34
2017-11-28T09:01:45.017Z,1018.37
2017-11-28T09:02:45.017Z,1018.32
2017-11-28T09:03:44.993Z,1018.38
2017-11-28T09:04:44.991Z,1018.47
2017-11-28T09:05:44.991Z,1018.44
2017-11-28T09:06:44.963Z,1018.46
2017-11-28T09:07:44.957Z,1018.44
2017-11-28T09:08:44.939Z,1018.44
2017-11-28T09:09:44.930Z,1018.4
2017-11-28T09:10:44.931Z,1018.44
2017-11-28T09:11:44.922Z,1018.44
2017-11-28T09:12:44.913Z,1018.47
2017-11-28T09:13:44.889Z,1018.41
2017-11-28T09:14:44.888Z,1018.4
2017-11-28T09:15:44.884Z,1018.38
2017-11-28T09:16:44.861Z,1018.37
2017-11-28T09:17:44.850Z,1018.38
2017-11-28T09:18:44.839Z,1018.32
2017-11-28T09:19:44.830Z,1018.35
2017-11-28T09:20:44.821Z,1018.34
2017-11-28T09:21:44.820Z,1018.36
2017-11-28T09:22:44.806Z,1018.4
2017-11-28T09:23:44.787Z,1018.34
2017-11-28T09:24:44.786Z,1018.32
2017-11-28T09:25:44.769Z,1018.31
2017-11-28T09:26:44.759Z,1018.35
2017-11-28T09:27:44.768Z,1018.37
2017-11-28T09:28:44.740Z,1018.34
2017-11-28T09:29:44.729Z,1018.35
2017-11-28T09:30:44.720Z,1018.33
2017-11-28T09:31:44.730Z,1018.29
2017-11-28T09:32:44.702Z,1018.19
2017-11-28T09:33:44.694Z,1018.17
2017-11-28T09:34:44.681Z,1018.1
2017-11-28T09:35:44.687Z,1018.11
2017-11-28T09:36:44.660Z,1018.05
2017-11-28T09:37:44.647Z,1018.07
2017-11-28T09:38:44.641Z,1018.07
2017-11-28T09:39:44.667Z,1018.1
2017-11-28T09:40:44.617Z,1018.11
2017-11-28T09:41:44.609Z,1018.12
2017-11-28T09:42:44.605Z,1018.12
2017-11-28T09:43:44.597Z,1018.16
2017-11-28T09:44:44.585Z,1018.19
2017-11-28T09:45:44.569Z,1018.18
2017-11-28T09:46:44.558Z,1018.16
2017-11-28T09:47:44.549Z,1018.12
2017-11-28T09:48:44.544Z,1018.15
2017-11-28T09:49:44.542Z,1018.16
2017-11-28T09:50:44.522Z,1018.12
2017-11-28T09:51:44.534Z,1018.04
2017-11-28T09:52:44.498Z,1018.07
2017-11-28T09:53:44.503Z,1018.06
2017-11-28T09:54:44.479Z,1018.04
2017-11-28T09:55:44.502Z,1018.01
2017-11-28T09:56:44.461Z,1017.96
2017-11-28T09:57:44.447Z,1017.98
2017-11-28T09:58:44.444Z,1017.98
2017-11-28T09:59:44.453Z,1018.02
2017-11-28T10:00:44.422Z,1018
2017-11-28T10:01:44.411Z,1017.94
2017-11-28T10:02:44.399Z,1017.95
2017-11-28T10:03:44.389Z,1017.96
2017-11-28T10:04:44.383Z,1017.93
2017-11-28T10:05:44.371Z,1017.93
2017-11-28T10:06:44.368Z,1017.9
2017-11-28T10:07:44.358Z,1017.88
2017-11-28T10:08:44.338Z,1017.9
2017-11-28T10:09:44.585Z,1017.9
2017-11-28T10:10:44.322Z,1017.87
2017-11-28T10:11:44.314Z,1017.89
2017-11-28T10:12:44.301Z,1017.85
2017-11-28T10:13:44.298Z,1017.83
2017-11-28T10:14:44.281Z,1017.81
2017-11-28T10:15:44.273Z,1017.76
2017-11-28T10:16:44.264Z,1017.75
2017-11-28T10:17:44.253Z,1017.68
2017-11-28T10:18:44.245Z,1017.64
2017-11-28T10:19:44.234Z,1017.6
2017-11-28T10:20:44.225Z,1017.56
2017-11-28T10:21:44.218Z,1017.58
2017-11-28T10:22:44.206Z,1017.57
2017-11-28T10:23:44.219Z,1017.47
2017-11-28T10:24:44.186Z,1017.47
2017-11-28T10:25:44.187Z,1017.39
2017-11-28T10:26:44.167Z,1017.42
2017-11-28T10:27:44.161Z,1017.36
2017-11-28T10:28:44.150Z,1017.4
2017-11-28T10:29:44.148Z,1017.33
2017-11-28T10:30:44.130Z,1017.36
2017-11-28T10:31:44.122Z,1017.37
2017-11-28T10:32:44.118Z,1017.37
2017-11-28T10:33:44.103Z,1017.4
2017-11-28T10:34:44.093Z,1017.34
2017-11-28T10:35:44.080Z,1017.35
2017-11-28T10:36:44.073Z,1017.36
2017-11-28T10:37:44.068Z,1017.27
2017-11-28T10:38:44.055Z,1017.27
2017-11-28T10:39:44.044Z,1017.2
2017-11-28T10:40:44.038Z,1017.17
2017-11-28T10:41:44.028Z,1017.19
2017-11-28T10:42:44.016Z,1017.19
2017-11-28T10:43:44.007Z,1017.16
2017-11-28T10:44:44.009Z,1017.18
2017-11-28T10:45:43.992Z,1017.14
2017-11-28T10:46:43.981Z,1017.18
2017-11-28T10:47:43.976Z,1017.17
2017-11-28T10:48:43.968Z,1017.16
2017-11-28T10:49:43.956Z,1017.12
2017-11-28T10:50:43.948Z,1017.13
2017-11-28T10:51:43.940Z,1017.09
2017-11-28T10:52:43.942Z,1017.08
2017-11-28T10:53:43.916Z,1017.2
2017-11-28T10:54:43.909Z,1017.21
2017-11-28T10:55:43.898Z,1017.26
2017-11-28T10:56:43.891Z,1017.33
2017-11-28T10:57:43.879Z,1017.31
2017-11-28T10:58:43.877Z,1017.3
2017-11-28T10:59:43.864Z,1017.34
2017-11-28T11:00:43.853Z,1017.31
2017-11-28T11:01:43.854Z,1017.25
2017-11-28T11:02:43.838Z,1017.27
2017-11-28T11:03:43.840Z,1017.27
2017-11-28T11:04:43.826Z,1017.28
2017-11-28T11:05:43.810Z,1017.19
2017-11-28T11:06:43.799Z,1017.18
2017-11-28T11:07:43.792Z,1017.14
2017-11-28T11:08:43.782Z,1017.1
2017-11-28T11:09:43.773Z,1017.06
2017-11-28T11:10:43.765Z,1017.13
2017-11-28T11:11:43.753Z,1017.07
2017-11-28T11:12:43.744Z,1017.09
2017-11-28T11:13:43.753Z,1017.1
2017-11-28T11:14:43.757Z,1017.09
2017-11-28T11:15:43.720Z,1017.06
2017-11-28T11:16:43.713Z,1017.12
2017-11-28T11:17:43.712Z,1017.17
2017-11-28T11:18:43.703Z,1017.14
2017-11-28T11:19:43.683Z,1017.14
2017-11-28T11:20:43.702Z,1017.09
2017-11-28T11:21:43.716Z,1017.07
2017-11-28T11:22:43.663Z,1017.03
2017-11-28T11:23:43.654Z,1017.01
2017-11-28T11:24:43.648Z,1017.02
2017-11-28T11:25:43.637Z,1016.97
2017-11-28T11:26:43.619Z,1016.95
2017-11-28T11:27:43.611Z,1016.94
2017-11-28T11:28:43.606Z,1016.89
2017-11-28T11:29:43.597Z,1016.93
2017-11-28T11:30:43.588Z,1016.92
2017-11-28T11:31:43.577Z,1016.9
2017-11-28T11:32:43.566Z,1016.88
2017-11-28T11:33:43.567Z,1016.89
2017-11-28T11:34:43.555Z,1016.88
2017-11-28T11:35:43.554Z,1016.89
2017-11-28T11:36:43.535Z,1016.89
2017-11-28T11:37:43.524Z,1016.87
2017-11-28T11:38:43.517Z,1016.89
2017-11-28T11:39:43.506Z,1016.88
2017-11-28T11:40:43.526Z,1016.9
2017-11-28T11:41:43.501Z,1016.84
2017-11-28T11:42:43.538Z,1016.82
2017-11-28T11:43:43.475Z,1016.81
2017-11-28T11:44:43.469Z,1016.81
2017-11-28T11:45:43.463Z,1016.76
2017-11-28T11:46:43.478Z,1016.78
2017-11-28T11:47:43.458Z,1016.72
2017-11-28T11:48:43.426Z,1016.82
2017-11-28T11:49:43.435Z,1016.83
2017-11-28T11:50:43.429Z,1016.91
2017-11-28T11:51:43.404Z,1016.94
2017-11-28T11:52:43.410Z,1017.01
2017-11-28T11:53:43.397Z,1016.99
2017-11-28T11:54:43.374Z,1017.03
2017-11-28T11:55:43.369Z,1017.09
2017-11-28T11:56:43.357Z,1017.15
2017-11-28T11:57:43.353Z,1017.24
2017-11-28T11:58:43.341Z,1017.17
2017-11-28T11:59:43.331Z,1017.16
2017-11-28T12:00:43.362Z,1017.14
2017-11-28T12:01:43.318Z,1017.16
2017-11-28T12:02:43.310Z,1017.13
2017-11-28T12:03:43.295Z,1017.1
2017-11-28T12:04:43.289Z,1017.08
2017-11-28T12:05:43.279Z,1017.16
2017-11-28T12:06:43.267Z,1017.16
2017-11-28T12:07:43.268Z,1017.2
2017-11-28T12:08:43.267Z,1017.17